METAR Data
IDs: Format: Raw Decoded Include TAF

Data at: 0102 UTC 29 Nov 2020

METAR for:KLWD (Lamoni Muni, IA, US)
Text:KLWD 290053Z AUTO 21010KT 10SM CLR 06/M01 A3006 RMK AO2 SLP188 T00611006
Temperature: 6.1°C ( 43°F)
Dewpoint: -0.6°C ( 31°F) [RH = 62%]
Pressure (altimeter):30.06 inches Hg (1018.0 mb) [Sea level pressure: 1018.8 mb]
Winds:from the SSW (210 degrees) at 12 MPH (10 knots; 5.1 m/s)
Visibility:10 or more sm (16+ km)
Ceiling:at least 12,000 feet AGL
Clouds:sky clear below 12,000 feet AGL
QC Flag:automated observation with no human augmentation